Sunday, July 22, 2018, 12:29 AM EDT
Back to Local

KFIT, Fitchburg, Fitchburg Municipal Airport

Location: Leominster, MA, United States Lat: 42.552
Local Time: 12:29 AM EDT ( 4:29 GMT) Lon: -71.756
Time Zone: US/Eastern Elev: 347 ft

Show me the last for .
Show Decoded

2018-07-21 23:52 METAR KFIT 220352Z AUTO 00000KT 10SM BKN018 17/16 A3013 RMK AO2 SLP200 T01720161
                 =
2018-07-21 23:43 METAR KFIT 220343Z AUTO VRB03KT 10SM BKN018 17/16 A3013 RMK AO2 T01720161 =
2018-07-21 23:31 METAR KFIT 220331Z AUTO 00000KT 10SM SCT019 17/16 A3014 RMK AO2 T01720161 =
2018-07-21 23:03 METAR KFIT 220303Z AUTO 00000KT 10SM BKN018 17/16 A3014 RMK AO2 T01720156 =
2018-07-21 22:52 METAR KFIT 220252Z AUTO 00000KT 10SM SCT019 17/16 A3014 RMK AO2 SLP204 T01720156
                 58001 =
2018-07-21 21:52 METAR KFIT 220152Z AUTO 00000KT 10SM FEW022 SCT060 18/16 A3015 RMK AO2 SLP210
                 T01780156 =
2018-07-21 20:52 METAR KFIT 220052Z AUTO 10005KT 10SM CLR 18/16 A3015 RMK AO2 SLP208 T01830156 =
2018-07-21 19:52 METAR KFIT 212352Z AUTO 12007KT 10SM CLR 19/16 A3014 RMK AO2 SLP206 T01940156
                 10256 20194 53010 =
2018-07-21 18:52 METAR KFIT 212252Z AUTO 12009KT 10SM CLR 22/16 A3013 RMK AO2 SLP202 T02170156 =
2018-07-21 17:52 METAR KFIT 212152Z AUTO 11009KT 10SM CLR 23/13 A3012 RMK AO2 SLP198 T02330133 =
2018-07-21 16:52 METAR KFIT 212052Z AUTO 09008KT 10SM CLR 24/14 A3011 RMK AO2 SLP196 T02390139
                 56012 =
2018-07-21 15:52 METAR KFIT 211952Z AUTO 10008KT 10SM CLR 24/14 A3012 RMK AO2 SLP198 T02440144 =
2018-07-21 14:52 METAR KFIT 211852Z AUTO 10008KT 10SM CLR 25/14 A3013 RMK AO2 SLP203 T02500139 =
2018-07-21 13:52 METAR KFIT 211752Z AUTO 12008KT 090V170 10SM CLR 25/13 A3015 RMK AO2 SLP207
                 T02500128 10250 20167 58010 =
2018-07-21 12:52 METAR KFIT 211652Z AUTO 11009KT 10SM CLR 24/13 A3016 RMK AO2 SLP212 T02440133 =
2018-07-21 11:52 METAR KFIT 211552Z AUTO VRB05G16KT 10SM CLR 23/13 A3017 RMK AO2 SLP216 T02330133
                 $ =
2018-07-21 10:52 METAR KFIT 211452Z AUTO 10007KT 10SM CLR 22/12 A3018 RMK AO2 SLP217 T02220122
                 58001 $ =
2018-07-21 09:52 METAR KFIT 211352Z AUTO 11005KT 10SM CLR 21/13 A3018 RMK AO2 SLP219 T02110128 $
                 =
2018-07-21 08:52 METAR KFIT 211252Z AUTO 00000KT 10SM CLR 21/17 A3018 RMK AO2 SLP219 T02060167 $
                 =
2018-07-21 07:59 METAR KFIT 211159Z AUTO 00000KT 10SM SCT003 SCT035 17/17 A3018 RMK AO2 T01670167
                 $ =
2018-07-21 07:52 METAR KFIT 211152Z AUTO 00000KT 9SM BKN003 BKN035 16/16 A3018 RMK AO2 CIG
                 002V006 SLP219 T01610161 10161 20133 50003 $ =
2018-07-21 07:28 METAR KFIT 211128Z AUTO 00000KT 3SM BR OVC002 16/16 A3018 RMK AO2 T01560156 $ =
2018-07-21 07:12 METAR KFIT 211112Z AUTO 00000KT 1 3/4SM BR OVC002 16/16 A3018 RMK AO2 T01560156
                 $ =
2018-07-21 07:06 METAR KFIT 211106Z AUTO 00000KT 3SM BR OVC002 16/16 A3018 RMK AO2 T01560156 $ =
2018-07-21 07:04 METAR KFIT 211104Z AUTO 00000KT 1 1/2SM BR OVC002 16/16 A3018 RMK AO2 VIS 1/2V5
                 T01560156 $ =
2018-07-21 06:52 METAR KFIT 211052Z AUTO 00000KT 1/4SM FG VV002 15/ A3018 RMK AO2 SLP220 T0150 $
                 =
2018-07-21 06:37 METAR KFIT 211037Z AUTO 31003KT 1/4SM FG OVC003 16/16 A3018 RMK AO2 T01560156 $
                 =
2018-07-21 06:30 METAR KFIT 211030Z AUTO 32003KT 1SM BR OVC003 16/16 A3018 RMK AO2 T01560156 =
2018-07-21 06:27 METAR KFIT 211027Z AUTO 33003KT 2SM BR OVC003 16/16 A3018 RMK AO2 T01560156 =
2018-07-21 05:52 METAR KFIT 210952Z AUTO 32003KT 10SM OVC005 15/15 A3017 RMK AO2 SLP216 T01500150
                 =
2018-07-21 05:49 METAR KFIT 210949Z AUTO 33003KT 10SM OVC005 15/15 A3017 RMK AO2 =
2018-07-21 05:08 METAR KFIT 210908Z AUTO 00000KT 10SM BKN007 14/14 A3017 RMK AO2 T01390139 =
2018-07-21 05:00 METAR KFIT 210900Z AUTO 00000KT 10SM SCT008 14/14 A3017 RMK AO2 T01390139 =
2018-07-21 04:52 METAR KFIT 210852Z AUTO 00000KT 10SM CLR 13/13 A3018 RMK AO2 SLP217 T01330133
                 53006 =
2018-07-21 03:52 METAR KFIT 210752Z AUTO 35003KT 10SM SCT038 14/14 A3016 RMK AO2 SLP213 T01440144
                 =
2018-07-21 02:52 METAR KFIT 210652Z AUTO 00000KT 10SM CLR 15/15 A3016 RMK AO2 SLP212 T01500150 =
2018-07-21 01:52 METAR KFIT 210552Z AUTO 00000KT 10SM CLR 16/16 A3016 RMK AO2 SLP211 T01560156
                 10244 20156 58002 =
2018-07-21 00:52 METAR KFIT 210452Z AUTO 35003KT 10SM CLR 17/17 A3016 RMK AO2 SLP213 T01720167
                 402890128 =

Support USWX by starting your Amazon purchase here.